createdAt,value
2023-01-17T00:00:17.708Z,0.60
2023-01-17T00:03:59.869Z,0.30
2023-01-17T00:07:21.127Z,0.38
2023-01-17T00:10:27.518Z,0.52
2023-01-17T00:13:29.594Z,0.40
2023-01-17T00:16:32.121Z,0.70
2023-01-17T00:19:54.548Z,0.80
2023-01-17T00:23:17.672Z,0.60
2023-01-17T00:26:19.998Z,0.80
2023-01-17T00:29:24.441Z,0.63
2023-01-17T00:32:26.844Z,0.65
2023-01-17T00:35:31.245Z,0.82
2023-01-17T00:38:36.991Z,0.67
2023-01-17T00:41:39.619Z,0.10
2023-01-17T00:45:00.367Z,0.47
2023-01-17T00:48:21.769Z,0.32
2023-01-17T00:51:43.791Z,0.60
2023-01-17T00:55:04.970Z,0.82
2023-01-17T00:58:27.475Z,0.32
2023-01-17T01:01:49.455Z,0.30
2023-01-17T01:05:10.424Z,0.45
2023-01-17T01:08:44.962Z,0.57
2023-01-17T01:12:06.170Z,1.17
2023-01-17T01:15:29.476Z,0.63
2023-01-17T01:18:50.714Z,0.30
2023-01-17T01:22:12.923Z,0.40
2023-01-17T01:25:33.883Z,1.02
2023-01-17T01:28:55.400Z,0.73
2023-01-17T01:32:17.013Z,1.13
2023-01-17T01:35:22.411Z,1.02
2023-01-17T01:38:25.656Z,1.20
2023-01-17T01:41:28.308Z,0.68
2023-01-17T01:44:52.207Z,0.75
2023-01-17T01:48:14.321Z,0.93
2023-01-17T01:51:22.435Z,0.40
2023-01-17T01:54:37.725Z,0.50
2023-01-17T01:57:49.072Z,0.32
2023-01-17T02:00:52.631Z,0.50
2023-01-17T02:03:55.121Z,1.20
2023-01-17T02:07:08.553Z,0.40
2023-01-17T02:10:11.673Z,0.60
2023-01-17T02:13:17.961Z,0.60
2023-01-17T02:16:37.672Z,0.43
2023-01-17T02:20:12.918Z,1.25
2023-01-17T02:23:44.617Z,0.50
2023-01-17T02:27:05.906Z,0.40
2023-01-17T02:30:30.677Z,0.45
2023-01-17T02:33:40.887Z,0.35
2023-01-17T02:37:09.567Z,0.30
2023-01-17T02:40:25.495Z,0.30
2023-01-17T02:43:29.268Z,0.70
2023-01-17T02:46:32.500Z,0.40
2023-01-17T02:49:34.716Z,0.60
2023-01-17T02:52:56.381Z,0.45
2023-01-17T02:56:32.471Z,0.43
2023-01-17T02:59:47.403Z,0.25
2023-01-17T03:03:11.849Z,0.50
2023-01-17T03:06:26.085Z,0.28
2023-01-17T03:09:30.366Z,0.47
2023-01-17T03:15:39.676Z,0.30
2023-01-17T03:18:42.286Z,0.20
2023-01-17T03:21:44.290Z,0.20
2023-01-17T03:24:48.429Z,0.40
2023-01-17T03:27:51.476Z,0.20
2023-01-17T03:30:53.942Z,0.30
2023-01-17T03:33:57.210Z,0.28
2023-01-17T03:36:59.647Z,0.25
2023-01-17T03:40:01.891Z,0.32
2023-01-17T03:43:04.455Z,0.40
2023-01-17T03:46:08.765Z,0.63
2023-01-17T03:49:11.456Z,0.15
2023-01-17T03:52:13.617Z,0.40
2023-01-17T03:55:16.596Z,0.28
2023-01-17T03:58:18.997Z,0.20
2023-01-17T04:01:21.972Z,0.30
2023-01-17T04:04:24.443Z,0.50
2023-01-17T04:07:27.118Z,0.30
2023-01-17T04:10:29.312Z,0.22
2023-01-17T04:13:32.371Z,0.20
2023-01-17T04:16:35.091Z,0.20
2023-01-17T04:19:38.424Z,0.30
2023-01-17T04:22:40.638Z,0.40
2023-01-17T04:25:43.691Z,0.60
2023-01-17T04:28:45.766Z,0.30
2023-01-17T04:31:49.205Z,0.30
2023-01-17T04:34:51.152Z,0.30
2023-01-17T04:37:53.852Z,0.20
2023-01-17T04:40:55.955Z,0.30
2023-01-17T04:43:58.577Z,0.40
2023-01-17T04:47:02.473Z,0.22
2023-01-17T04:50:05.699Z,0.30
2023-01-17T04:53:07.831Z,0.20
2023-01-17T04:56:10.193Z,0.30
2023-01-17T04:59:12.474Z,0.30
2023-01-17T05:02:15.377Z,0.25
2023-01-17T05:05:18.607Z,0.28
2023-01-17T05:08:21.428Z,0.28
2023-01-17T05:11:23.618Z,0.38
2023-01-17T05:14:26.979Z,0.20
2023-01-17T05:17:29.346Z,0.20
2023-01-17T05:20:32.023Z,0.40
2023-01-17T05:23:34.002Z,0.45
2023-01-17T05:26:38.445Z,0.28
2023-01-17T05:29:41.245Z,0.40
2023-01-17T05:32:49.053Z,0.30
2023-01-17T05:35:51.145Z,0.20
2023-01-17T05:38:53.716Z,0.40
2023-01-17T05:41:55.724Z,0.20
2023-01-17T05:44:58.530Z,0.25
2023-01-17T05:48:02.374Z,0.25
2023-01-17T05:51:05.506Z,0.37
2023-01-17T05:54:08.735Z,0.20
2023-01-17T05:57:11.378Z,0.30
2023-01-17T06:00:14.832Z,0.40
2023-01-17T06:03:17.658Z,0.20
2023-01-17T06:06:20.442Z,0.30
2023-01-17T06:09:23.136Z,0.80
2023-01-17T06:12:25.352Z,0.32
2023-01-17T06:15:28.029Z,0.35
2023-01-17T06:18:31.496Z,0.43
2023-01-17T06:21:34.194Z,0.30
2023-01-17T06:24:36.434Z,0.20
2023-01-17T06:27:38.924Z,0.40
2023-01-17T06:30:42.083Z,0.10
2023-01-17T06:33:45.052Z,0.30
2023-01-17T06:36:48.283Z,0.55
2023-01-17T06:39:50.738Z,0.30
2023-01-17T06:42:52.895Z,0.32
2023-01-17T06:45:55.448Z,0.40
2023-01-17T06:48:57.801Z,0.40
2023-01-17T06:52:00.561Z,0.35
2023-01-17T06:55:02.779Z,0.30
2023-01-17T06:58:05.631Z,0.45
2023-01-17T07:01:09.842Z,0.73
2023-01-17T07:04:15.438Z,0.32
2023-01-17T07:07:18.354Z,0.50
2023-01-17T07:10:22.441Z,0.30
2023-01-17T07:13:24.903Z,0.40
2023-01-17T07:16:27.560Z,0.50
2023-01-17T07:19:31.124Z,0.30
2023-01-17T07:22:34.083Z,0.40
2023-01-17T07:25:36.611Z,0.47
2023-01-17T07:28:39.815Z,0.60
2023-01-17T07:31:41.986Z,0.40
2023-01-17T07:34:44.466Z,0.65
2023-01-17T07:37:51.033Z,0.40
2023-01-17T07:40:58.985Z,0.85
2023-01-17T07:44:01.140Z,0.60
2023-01-17T07:47:04.596Z,0.50
2023-01-17T07:50:08.265Z,0.80
2023-01-17T07:53:11.696Z,0.80
2023-01-17T07:56:13.968Z,0.70
2023-01-17T07:59:18.103Z,0.40
2023-01-17T08:02:23.724Z,0.70
2023-01-17T08:05:26.461Z,0.93
2023-01-17T08:08:29.318Z,0.60
2023-01-17T08:11:31.835Z,0.60
2023-01-17T08:14:34.112Z,0.85
2023-01-17T08:17:36.688Z,1.00
2023-01-17T08:20:38.688Z,0.55
2023-01-17T08:23:41.652Z,0.80
2023-01-17T08:26:43.678Z,0.50
2023-01-17T08:29:49.180Z,0.40
2023-01-17T08:32:51.467Z,0.60
2023-01-17T08:35:55.180Z,0.70
2023-01-17T08:38:57.659Z,0.63
2023-01-17T08:42:00.306Z,0.50
2023-01-17T08:45:03.127Z,0.70
2023-01-17T08:48:05.941Z,0.80
2023-01-17T08:51:08.187Z,0.63
2023-01-17T08:54:13.148Z,0.93
2023-01-17T08:57:15.380Z,0.60
2023-01-17T09:00:18.746Z,0.50
2023-01-17T09:03:20.894Z,0.63
2023-01-17T09:06:23.278Z,1.00
2023-01-17T09:09:26.757Z,0.47
2023-01-17T09:12:33.409Z,0.70
2023-01-17T09:15:35.712Z,0.68
2023-01-17T09:18:38.418Z,0.50
2023-01-17T09:21:40.604Z,0.60
2023-01-17T09:24:43.284Z,0.60
2023-01-17T09:27:47.094Z,0.80
2023-01-17T09:30:50.319Z,0.70
2023-01-17T09:33:54.676Z,0.55
2023-01-17T09:36:57.146Z,0.80
2023-01-17T09:39:59.173Z,0.70
2023-01-17T09:43:05.800Z,0.82
2023-01-17T09:46:22.838Z,1.00
2023-01-17T09:49:38.498Z,0.70
2023-01-17T09:52:41.251Z,0.47
2023-01-17T09:55:54.884Z,0.85
2023-01-17T09:59:32.845Z,0.70
2023-01-17T10:03:01.085Z,0.95
2023-01-17T10:06:31.137Z,0.50
2023-01-17T10:09:57.230Z,0.50
2023-01-17T10:13:03.162Z,0.60
2023-01-17T10:16:36.094Z,0.50
2023-01-17T10:19:52.029Z,0.68
2023-01-17T10:23:23.267Z,0.68
2023-01-17T10:26:26.683Z,0.77
2023-01-17T10:29:34.623Z,0.50
2023-01-17T10:32:46.790Z,0.70
2023-01-17T10:36:25.066Z,0.73
2023-01-17T10:39:31.139Z,0.73
2023-01-17T10:42:43.091Z,0.40
2023-01-17T10:45:54.842Z,0.75
2023-01-17T10:49:01.581Z,0.80
2023-01-17T10:56:16.033Z,0.90
2023-01-17T10:59:30.137Z,0.68
2023-01-17T11:02:40.221Z,0.52
2023-01-17T11:05:44.675Z,0.60
2023-01-17T11:08:59.187Z,0.85
2023-01-17T11:12:01.945Z,0.90
2023-01-17T11:15:10.844Z,0.65
2023-01-17T11:18:20.071Z,0.85
2023-01-17T11:21:25.590Z,0.73
2023-01-17T11:24:39.752Z,0.75
2023-01-17T11:30:56.709Z,0.55
2023-01-17T11:37:18.365Z,0.73
2023-01-17T11:40:23.828Z,0.80
2023-01-17T11:43:28.243Z,0.60
2023-01-17T11:46:30.831Z,0.88
2023-01-17T11:49:32.950Z,0.98
2023-01-17T11:52:39.456Z,0.63
2023-01-17T11:55:53.547Z,0.60
2023-01-17T11:59:40.861Z,0.70
2023-01-17T12:02:57.972Z,0.65
2023-01-17T12:06:57.626Z,0.75
2023-01-17T12:10:35.923Z,0.80
2023-01-17T12:14:09.615Z,0.95
2023-01-17T12:17:44.822Z,0.50
2023-01-17T12:21:05.043Z,0.85
2023-01-17T12:24:15.971Z,0.88
2023-01-17T12:27:29.418Z,0.57
2023-01-17T12:31:02.186Z,0.68
2023-01-17T12:34:26.923Z,0.68
2023-01-17T12:37:38.465Z,0.53
2023-01-17T12:40:47.333Z,0.85
2023-01-17T12:43:54.467Z,0.63
2023-01-17T12:47:06.208Z,0.70
2023-01-17T12:50:27.076Z,0.60
2023-01-17T12:53:52.193Z,0.80
2023-01-17T12:57:04.861Z,0.50
2023-01-17T13:00:23.252Z,0.47
2023-01-17T13:03:41.909Z,0.55
2023-01-17T13:07:00.239Z,0.60
2023-01-17T13:10:18.760Z,0.57
2023-01-17T13:13:24.557Z,0.70
2023-01-17T13:16:36.605Z,0.57
2023-01-17T13:20:01.858Z,0.75
2023-01-17T13:23:18.811Z,0.43
2023-01-17T13:26:57.688Z,0.68
2023-01-17T13:30:28.897Z,0.63
2023-01-17T13:34:15.977Z,1.27
2023-01-17T13:37:33.939Z,0.80
2023-01-17T13:40:42.308Z,1.00
2023-01-17T13:44:05.685Z,0.60
2023-01-17T13:47:10.647Z,0.70
2023-01-17T13:50:38.754Z,0.68
2023-01-17T13:53:41.635Z,0.73
2023-01-17T13:56:44.813Z,0.60
2023-01-17T13:59:47.634Z,0.50
2023-01-17T14:02:51.757Z,0.50
2023-01-17T14:05:57.334Z,0.55
2023-01-17T14:09:08.270Z,1.00
2023-01-17T14:12:10.741Z,0.60
2023-01-17T14:15:27.555Z,0.82
2023-01-17T14:18:36.926Z,0.65
2023-01-17T14:21:39.190Z,0.60
2023-01-17T14:25:12.323Z,0.63
2023-01-17T14:28:32.061Z,0.80
2023-01-17T14:31:34.619Z,0.75
2023-01-17T14:34:37.068Z,0.80
2023-01-17T14:37:50.920Z,0.60
2023-01-17T14:41:00.330Z,0.68
2023-01-17T14:44:04.183Z,0.60
2023-01-17T14:47:06.232Z,0.50
2023-01-17T14:50:29.997Z,0.50
2023-01-17T14:53:34.658Z,0.40
2023-01-17T14:56:37.829Z,0.50
2023-01-17T14:59:40.388Z,0.70
2023-01-17T15:02:47.022Z,0.65
2023-01-17T15:05:52.762Z,0.65
2023-01-17T15:08:55.186Z,0.60
2023-01-17T15:11:58.545Z,0.73
2023-01-17T15:15:01.814Z,0.50
2023-01-17T15:18:22.057Z,0.50
2023-01-17T15:21:28.016Z,0.60
2023-01-17T15:24:35.955Z,0.85
2023-01-17T15:27:39.194Z,0.75
2023-01-17T15:31:07.474Z,0.70
2023-01-17T15:34:38.688Z,0.57
2023-01-17T15:37:42.667Z,0.55
2023-01-17T15:40:48.114Z,0.50
2023-01-17T15:43:52.254Z,0.70
2023-01-17T15:46:55.585Z,0.50
2023-01-17T15:50:01.085Z,0.68
2023-01-17T15:53:05.542Z,0.50
2023-01-17T15:56:26.861Z,0.80
2023-01-17T15:59:43.234Z,0.60
2023-01-17T16:02:56.492Z,0.80
2023-01-17T16:06:01.224Z,0.50
2023-01-17T16:09:18.008Z,0.50
2023-01-17T16:12:22.541Z,0.60
2023-01-17T16:15:27.226Z,0.80
2023-01-17T16:18:30.323Z,0.70
2023-01-17T16:21:32.981Z,0.40
2023-01-17T16:24:35.457Z,0.47
2023-01-17T16:27:38.326Z,0.50
2023-01-17T16:30:40.673Z,0.40
2023-01-17T16:33:44.646Z,1.60
2023-01-17T16:36:48.420Z,0.83
2023-01-17T16:39:58.203Z,0.47
2023-01-17T16:43:03.345Z,0.60
2023-01-17T16:46:07.174Z,0.70
2023-01-17T16:49:11.803Z,0.68
2023-01-17T16:52:21.310Z,0.68
2023-01-17T16:55:25.140Z,0.60
2023-01-17T16:58:27.905Z,0.45
2023-01-17T17:01:31.337Z,0.60
2023-01-17T17:04:35.194Z,0.60
2023-01-17T17:07:51.803Z,0.60
2023-01-17T17:11:06.784Z,0.70
2023-01-17T17:14:09.816Z,0.90
2023-01-17T17:17:19.356Z,0.60
2023-01-17T17:20:25.297Z,0.80
2023-01-17T17:23:29.966Z,1.10
2023-01-17T17:26:36.191Z,0.90
2023-01-17T17:29:43.713Z,1.10
2023-01-17T17:32:49.678Z,1.10
2023-01-17T17:35:53.260Z,1.15
2023-01-17T17:38:59.850Z,1.08
2023-01-17T17:42:03.452Z,1.38
2023-01-17T17:45:06.199Z,1.48
2023-01-17T17:48:10.379Z,1.88
2023-01-17T17:51:30.280Z,2.45
2023-01-17T17:54:36.453Z,2.55
2023-01-17T17:57:38.805Z,3.00
2023-01-17T18:00:42.500Z,3.20
2023-01-17T18:03:45.288Z,3.30
2023-01-17T18:06:51.457Z,4.50
2023-01-17T18:09:54.463Z,4.20
2023-01-17T18:12:57.306Z,5.03
2023-01-17T18:16:11.518Z,5.57
2023-01-17T18:19:23.588Z,5.22
2023-01-17T18:22:25.734Z,7.28
2023-01-17T18:25:28.239Z,7.00
2023-01-17T18:28:30.852Z,6.55
2023-01-17T18:31:34.747Z,8.55
2023-01-17T18:34:42.011Z,7.00
2023-01-17T18:37:45.990Z,6.70
2023-01-17T18:40:48.258Z,7.17
2023-01-17T18:43:51.616Z,7.05
2023-01-17T18:46:54.908Z,8.02
2023-01-17T18:49:58.752Z,8.55
2023-01-17T18:53:00.752Z,9.30
2023-01-17T18:56:07.510Z,8.38
2023-01-17T18:59:13.837Z,8.63
2023-01-17T19:02:18.409Z,7.72
2023-01-17T19:05:21.865Z,6.88
2023-01-17T19:08:25.123Z,6.72
2023-01-17T19:11:28.568Z,7.55
2023-01-17T19:14:31.080Z,6.55
2023-01-17T19:17:34.148Z,7.13
2023-01-17T19:20:36.884Z,7.40
2023-01-17T19:23:41.531Z,6.65
2023-01-17T19:26:44.905Z,7.70
2023-01-17T19:29:47.879Z,7.05
2023-01-17T19:32:51.733Z,6.83
2023-01-17T19:35:59.537Z,7.45
2023-01-17T19:39:06.110Z,6.78
2023-01-17T19:42:26.512Z,6.88
2023-01-17T19:45:29.701Z,6.78
2023-01-17T19:48:36.875Z,6.53
2023-01-17T19:51:46.404Z,6.72
2023-01-17T19:54:49.654Z,6.13
2023-01-17T19:57:52.381Z,7.23
2023-01-17T20:01:07.328Z,6.30
2023-01-17T20:04:19.776Z,6.68
2023-01-17T20:07:25.045Z,6.45
2023-01-17T20:10:30.000Z,6.38
2023-01-17T20:13:34.852Z,5.65
2023-01-17T20:16:37.929Z,5.22
2023-01-17T20:19:41.491Z,6.15
2023-01-17T20:22:45.733Z,6.00
2023-01-17T20:25:59.954Z,4.93
2023-01-17T20:29:07.636Z,5.13
2023-01-17T20:32:10.821Z,5.70
2023-01-17T20:35:14.232Z,5.57
2023-01-17T20:38:17.816Z,4.82
2023-01-17T20:41:23.296Z,4.78
2023-01-17T20:44:25.598Z,5.18
2023-01-17T20:47:30.143Z,5.00
2023-01-17T20:50:39.209Z,5.80
2023-01-17T20:53:45.315Z,5.10
2023-01-17T20:56:49.216Z,4.50
2023-01-17T20:59:55.368Z,4.60
2023-01-17T21:02:57.444Z,5.65
2023-01-17T21:06:05.180Z,4.75
2023-01-17T21:09:10.866Z,4.97
2023-01-17T21:12:17.926Z,5.47
2023-01-17T21:15:21.486Z,4.50
2023-01-17T21:18:25.672Z,5.72
2023-01-17T21:21:30.115Z,5.13
2023-01-17T21:24:34.329Z,5.10
2023-01-17T21:27:41.849Z,4.93
2023-01-17T21:30:51.321Z,5.28
2023-01-17T21:33:59.988Z,4.13
2023-01-17T21:37:03.942Z,5.00
2023-01-17T21:40:06.448Z,4.47
2023-01-17T21:43:09.870Z,4.57
2023-01-17T21:46:12.042Z,3.63
2023-01-17T21:49:15.141Z,5.03
2023-01-17T21:52:17.304Z,4.05
2023-01-17T21:55:40.480Z,4.38
2023-01-17T21:58:45.891Z,4.25
2023-01-17T22:01:49.105Z,4.13
2023-01-17T22:04:51.669Z,4.57
2023-01-17T22:08:12.595Z,3.60
2023-01-17T22:11:18.840Z,3.78
2023-01-17T22:14:21.909Z,3.88
2023-01-17T22:17:28.418Z,3.20
2023-01-17T22:20:34.810Z,3.53
2023-01-17T22:23:37.278Z,3.13
2023-01-17T22:26:41.884Z,3.30
2023-01-17T22:32:47.916Z,3.60
2023-01-17T22:35:59.636Z,3.13
2023-01-17T22:39:02.404Z,3.60
2023-01-17T22:42:05.553Z,3.17
2023-01-17T22:45:09.121Z,3.55
2023-01-17T22:48:11.227Z,3.20
2023-01-17T22:51:18.097Z,2.88
2023-01-17T22:54:20.494Z,3.42
2023-01-17T22:57:23.435Z,3.00
2023-01-17T23:00:25.584Z,3.20
2023-01-17T23:03:27.986Z,2.97
2023-01-17T23:06:35.702Z,2.78
2023-01-17T23:09:40.699Z,2.92
2023-01-17T23:12:43.918Z,2.50
2023-01-17T23:16:05.043Z,2.90
2023-01-17T23:19:25.501Z,2.88
2023-01-17T23:22:30.240Z,2.50
2023-01-17T23:25:33.176Z,2.58
2023-01-17T23:28:35.711Z,2.13
2023-01-17T23:31:38.049Z,2.50
2023-01-17T23:34:41.725Z,2.50
2023-01-17T23:38:03.710Z,2.70
2023-01-17T23:41:27.475Z,2.00
2023-01-17T23:44:32.786Z,2.47
2023-01-17T23:47:35.690Z,2.42
2023-01-17T23:50:39.885Z,2.40
2023-01-17T23:53:42.914Z,2.45
2023-01-17T23:56:47.682Z,2.03
2023-01-17T23:59:50.033Z,2.28
